Terminal Aerodrome Forecast
Issued by NWS Cleveland, OH

Home | Current Version | Previous Version | Text Only | Print | Product List | Glossary Off
Versions: 1 2 3 4 5 6 7 8 9 10 11 12 13 14 15 16 17 18 19 20 21 22 23 24

000
FTUS41 KCLE 230300 AAA
TAFMFD
TAF AMD
KMFD 230326Z 2303/2324 33005KT P6SM OVC035
     FM230700 32004KT P6SM SCT015 BKN035
      TEMPO 2307/2311 BKN015
     FM231400 32005KT P6SM FEW035 SCT250=

USA.gov is the U.S. government's official web portal to all federal, state and local government web resources and services.